Haltom City, Texas
Current Conditions -  °F | °C
As of 8:53 PM on Monday 20 Oct 2014 (Local Time) from KFTW Reporting Station
Clear Clear  
Wind Chill: 73°   Ceiling: Unl
Heat Index: 73°   Visibility: 10mi
Dew Point: 59°   Wind: 7mph
Humidity: 61%   Direction: 120°ESE
Pressure: 30.02"   Gusts: NA
Location:  32.81°N, 97.27°W
Report Text: KFTW 210153Z 12006KT 10SM CLR 23/15 A3002 RMK AO2 SLP161 T02280150
Loading
Personal Weather Stations






























Interactive Weather Map New forecast layout! Learn more

10-Day Weather Forecast

Advertisements
Track Severe Weather on mobile